createdAt,value
2022-10-13T00:00:40.880Z,994.92
2022-10-13T00:01:40.769Z,994.93
2022-10-13T00:02:40.695Z,994.92
2022-10-13T00:03:40.788Z,994.93
2022-10-13T00:04:40.525Z,994.91
2022-10-13T00:05:40.443Z,994.91
2022-10-13T00:06:40.369Z,994.89
2022-10-13T00:07:40.283Z,994.87
2022-10-13T00:08:40.198Z,994.85
2022-10-13T00:09:40.169Z,994.84
2022-10-13T00:10:40.036Z,994.85
2022-10-13T00:11:39.957Z,994.85
2022-10-13T00:12:39.877Z,994.85
2022-10-13T00:13:39.795Z,994.87
2022-10-13T00:14:39.716Z,994.86
2022-10-13T00:15:39.634Z,994.88
2022-10-13T00:16:39.551Z,994.89
2022-10-13T00:17:39.470Z,994.89
2022-10-13T00:18:39.391Z,994.89
2022-10-13T00:19:39.329Z,994.91
2022-10-13T00:20:39.228Z,994.88
2022-10-13T00:21:39.145Z,994.87
2022-10-13T00:22:39.066Z,994.85
2022-10-13T00:23:38.985Z,994.86
2022-10-13T00:24:38.904Z,994.86
2022-10-13T00:25:38.820Z,994.88
2022-10-13T00:26:38.741Z,994.88
2022-10-13T00:27:38.658Z,994.85
2022-10-13T00:28:38.637Z,994.88
2022-10-13T00:29:38.644Z,994.89
2022-10-13T00:30:38.416Z,994.90
2022-10-13T00:31:38.333Z,994.88
2022-10-13T00:32:38.257Z,994.87
2022-10-13T00:33:38.170Z,994.86
2022-10-13T00:34:38.089Z,994.85
2022-10-13T00:35:38.022Z,994.88
2022-10-13T00:36:37.927Z,994.87
2022-10-13T00:37:37.843Z,994.87
2022-10-13T00:38:37.863Z,994.86
2022-10-13T00:39:37.682Z,994.87
2022-10-13T00:40:37.600Z,994.88
2022-10-13T00:41:37.519Z,994.87
2022-10-13T00:42:37.438Z,994.85
2022-10-13T00:43:37.356Z,994.80
2022-10-13T00:44:37.325Z,994.78
2022-10-13T00:45:37.193Z,994.76
2022-10-13T00:46:37.181Z,994.76
2022-10-13T00:47:37.029Z,994.76
2022-10-13T00:48:36.950Z,994.77
2022-10-13T00:49:36.866Z,994.76
2022-10-13T00:50:36.992Z,994.76
2022-10-13T00:51:36.723Z,994.80
2022-10-13T00:52:36.623Z,994.81
2022-10-13T00:53:36.544Z,994.80
2022-10-13T00:54:36.460Z,994.80
2022-10-13T00:55:36.379Z,994.82
2022-10-13T00:56:36.300Z,994.82
2022-10-13T00:57:36.221Z,994.83
2022-10-13T00:58:36.134Z,994.85
2022-10-13T00:59:36.154Z,994.82
2022-10-13T01:00:36.188Z,994.80
2022-10-13T01:01:35.892Z,994.84
2022-10-13T01:02:35.810Z,994.83
2022-10-13T01:03:35.727Z,994.83
2022-10-13T01:04:35.647Z,994.80
2022-10-13T01:05:35.565Z,994.81
2022-10-13T01:06:35.485Z,994.82
2022-10-13T01:07:35.422Z,994.75
2022-10-13T01:08:35.321Z,994.79
2022-10-13T01:09:35.241Z,994.76
2022-10-13T01:10:35.161Z,994.74
2022-10-13T01:11:35.085Z,994.69
2022-10-13T01:12:35.247Z,994.70
2022-10-13T01:13:34.918Z,994.69
2022-10-13T01:14:34.835Z,994.69
2022-10-13T01:15:34.756Z,994.69
2022-10-13T01:16:34.673Z,994.71
2022-10-13T01:17:34.594Z,994.74
2022-10-13T01:18:34.512Z,994.73
2022-10-13T01:19:34.431Z,994.72
2022-10-13T01:20:34.349Z,994.74
2022-10-13T01:21:34.270Z,994.71
2022-10-13T01:22:34.187Z,994.70
2022-10-13T01:23:34.127Z,994.67
2022-10-13T01:24:34.028Z,994.70
2022-10-13T01:25:33.951Z,994.72
2022-10-13T01:26:33.866Z,994.72
2022-10-13T01:27:33.786Z,994.74
2022-10-13T01:28:33.947Z,994.75
2022-10-13T01:29:33.623Z,994.77
2022-10-13T01:30:33.541Z,994.82
2022-10-13T01:31:33.462Z,994.81
2022-10-13T01:32:33.379Z,994.85
2022-10-13T01:33:33.297Z,994.85
2022-10-13T01:34:33.215Z,994.84
2022-10-13T01:35:33.140Z,994.85
2022-10-13T01:36:33.054Z,994.84
2022-10-13T01:37:32.973Z,994.85
2022-10-13T01:38:32.893Z,994.87
2022-10-13T01:39:32.952Z,994.84
2022-10-13T01:40:32.729Z,994.87
2022-10-13T01:41:32.649Z,994.89
2022-10-13T01:42:32.564Z,994.89
2022-10-13T01:43:32.485Z,994.89
2022-10-13T01:44:32.402Z,994.85
2022-10-13T01:45:32.321Z,994.85
2022-10-13T01:46:32.238Z,994.83
2022-10-13T01:47:32.158Z,994.82
2022-10-13T01:48:32.078Z,994.80
2022-10-13T01:49:31.997Z,994.81
2022-10-13T01:50:31.913Z,994.80
2022-10-13T01:51:31.834Z,994.82
2022-10-13T01:52:31.754Z,994.81
2022-10-13T01:53:31.671Z,994.77
2022-10-13T01:54:31.597Z,994.77
2022-10-13T01:55:31.529Z,994.72
2022-10-13T01:56:31.427Z,994.75
2022-10-13T01:57:31.350Z,994.70
2022-10-13T01:58:31.264Z,994.74
2022-10-13T01:59:31.182Z,994.77
2022-10-13T02:00:31.178Z,994.76
2022-10-13T02:01:31.121Z,994.76
2022-10-13T02:02:30.940Z,994.74
2022-10-13T02:03:30.860Z,994.71
2022-10-13T02:04:30.778Z,994.73
2022-10-13T02:05:30.695Z,994.73
2022-10-13T02:06:30.615Z,994.74
2022-10-13T02:07:30.535Z,994.70
2022-10-13T02:08:30.458Z,994.69
2022-10-13T02:09:30.374Z,994.72
2022-10-13T02:10:30.295Z,994.70
2022-10-13T02:11:30.234Z,994.67
2022-10-13T02:12:30.133Z,994.69
2022-10-13T02:13:30.052Z,994.65
2022-10-13T02:14:29.972Z,994.67
2022-10-13T02:15:29.892Z,994.65
2022-10-13T02:16:29.814Z,994.66
2022-10-13T02:17:29.731Z,994.63
2022-10-13T02:18:29.651Z,994.66
2022-10-13T02:19:29.569Z,994.63
2022-10-13T02:20:29.489Z,994.64
2022-10-13T02:21:29.408Z,994.62
2022-10-13T02:22:29.328Z,994.58
2022-10-13T02:23:29.250Z,994.60
2022-10-13T02:24:29.169Z,994.61
2022-10-13T02:25:29.088Z,994.61
2022-10-13T02:26:29.007Z,994.59
2022-10-13T02:27:28.944Z,994.59
2022-10-13T02:28:28.875Z,994.59
2022-10-13T02:29:28.765Z,994.55
2022-10-13T02:30:28.691Z,994.56
2022-10-13T02:31:28.607Z,994.54
2022-10-13T02:32:28.525Z,994.55
2022-10-13T02:33:28.445Z,994.55
2022-10-13T02:34:28.364Z,994.57
2022-10-13T02:35:28.282Z,994.52
2022-10-13T02:36:28.202Z,994.54
2022-10-13T02:37:28.123Z,994.48
2022-10-13T02:38:28.142Z,994.48
2022-10-13T02:39:27.964Z,994.45
2022-10-13T02:40:27.880Z,994.44
2022-10-13T02:41:28.005Z,994.41
2022-10-13T02:42:27.722Z,994.45
2022-10-13T02:43:27.658Z,994.44
2022-10-13T02:44:27.560Z,994.42
2022-10-13T02:45:27.479Z,994.42
2022-10-13T02:46:27.399Z,994.42
2022-10-13T02:47:27.319Z,994.41
2022-10-13T02:48:27.239Z,994.37
2022-10-13T02:49:27.160Z,994.36
2022-10-13T02:50:27.076Z,994.35
2022-10-13T02:51:26.999Z,994.33
2022-10-13T02:52:27.165Z,994.36
2022-10-13T02:53:26.837Z,994.33
2022-10-13T02:54:26.756Z,994.34
2022-10-13T02:55:26.676Z,994.31
2022-10-13T02:56:26.596Z,994.33
2022-10-13T02:57:26.514Z,994.33
2022-10-13T02:58:26.434Z,994.32
2022-10-13T02:59:26.373Z,994.31
2022-10-13T03:00:26.354Z,994.32
2022-10-13T03:01:26.193Z,994.34
2022-10-13T03:02:26.114Z,994.31
2022-10-13T03:03:26.035Z,994.32
2022-10-13T03:04:26.054Z,994.30
2022-10-13T03:05:25.873Z,994.34
2022-10-13T03:06:25.794Z,994.35
2022-10-13T03:07:25.712Z,994.33
2022-10-13T03:08:25.631Z,994.37
2022-10-13T03:09:25.550Z,994.36
2022-10-13T03:10:25.468Z,994.34
2022-10-13T03:11:25.391Z,994.37
2022-10-13T03:12:25.312Z,994.39
2022-10-13T03:13:25.230Z,994.37
2022-10-13T03:14:25.150Z,994.35
2022-10-13T03:15:25.087Z,994.38
2022-10-13T03:16:24.987Z,994.34
2022-10-13T03:17:25.060Z,994.34
2022-10-13T03:18:24.827Z,994.35
2022-10-13T03:19:24.747Z,994.39
2022-10-13T03:20:24.671Z,994.36
2022-10-13T03:21:24.588Z,994.38
2022-10-13T03:22:24.505Z,994.37
2022-10-13T03:23:24.427Z,994.35
2022-10-13T03:24:24.346Z,994.34
2022-10-13T03:25:24.265Z,994.35
2022-10-13T03:26:24.186Z,994.36
2022-10-13T03:27:24.107Z,994.36
2022-10-13T03:28:24.074Z,994.36
2022-10-13T03:29:23.959Z,994.37
2022-10-13T03:30:23.864Z,994.31
2022-10-13T03:31:23.799Z,994.34
2022-10-13T03:32:23.699Z,994.32
2022-10-13T03:33:23.618Z,994.31
2022-10-13T03:34:23.539Z,994.34
2022-10-13T03:35:23.609Z,994.32
2022-10-13T03:36:23.378Z,994.31
2022-10-13T03:37:23.317Z,994.37
2022-10-13T03:38:23.217Z,994.31
2022-10-13T03:39:23.136Z,994.25
2022-10-13T03:40:23.054Z,994.25
2022-10-13T03:41:22.977Z,994.28
2022-10-13T03:42:22.939Z,994.24
2022-10-13T03:43:22.818Z,994.28
2022-10-13T03:44:22.732Z,994.28
2022-10-13T03:45:22.653Z,994.27
2022-10-13T03:46:22.568Z,994.26
2022-10-13T03:47:22.538Z,994.22
2022-10-13T03:48:22.409Z,994.20
2022-10-13T03:49:22.479Z,994.20
2022-10-13T03:50:22.251Z,994.18
2022-10-13T03:51:22.168Z,994.17
2022-10-13T03:52:22.407Z,994.16
2022-10-13T03:53:22.006Z,994.15
2022-10-13T03:54:21.923Z,994.18
2022-10-13T03:55:21.845Z,994.15
2022-10-13T03:56:21.764Z,994.13
2022-10-13T03:57:21.682Z,994.15
2022-10-13T03:58:21.598Z,994.09
2022-10-13T03:59:21.519Z,994.09
2022-10-13T04:00:21.437Z,994.10
2022-10-13T04:01:21.384Z,994.11
2022-10-13T04:02:21.788Z,994.10
2022-10-13T04:03:21.215Z,994.11
2022-10-13T04:04:21.112Z,994.12
2022-10-13T04:05:21.034Z,994.14
2022-10-13T04:06:20.953Z,994.15
2022-10-13T04:07:20.873Z,994.11
2022-10-13T04:08:20.792Z,994.12
2022-10-13T04:09:20.709Z,994.09
2022-10-13T04:10:20.628Z,994.10
2022-10-13T04:11:20.548Z,994.15
2022-10-13T04:12:21.198Z,994.14
2022-10-13T04:13:20.387Z,994.16
2022-10-13T04:14:20.304Z,994.18
2022-10-13T04:15:20.226Z,994.24
2022-10-13T04:16:20.145Z,994.21
2022-10-13T04:17:20.064Z,994.25
2022-10-13T04:18:19.985Z,994.28
2022-10-13T04:19:19.922Z,994.27
2022-10-13T04:20:19.824Z,994.30
2022-10-13T04:21:19.740Z,994.32
2022-10-13T04:22:19.882Z,994.32
2022-10-13T04:23:19.581Z,994.37
2022-10-13T04:24:19.759Z,994.37
2022-10-13T04:25:19.420Z,994.41
2022-10-13T04:26:19.339Z,994.40
2022-10-13T04:27:19.408Z,994.37
2022-10-13T04:28:19.247Z,994.36
2022-10-13T04:29:19.101Z,994.35
2022-10-13T04:30:19.017Z,994.36
2022-10-13T04:31:18.951Z,994.36
2022-10-13T04:32:19.180Z,994.30
2022-10-13T04:33:18.776Z,994.35
2022-10-13T04:34:18.694Z,994.38
2022-10-13T04:35:18.632Z,994.39
2022-10-13T04:36:18.532Z,994.35
2022-10-13T04:37:18.453Z,994.39
2022-10-13T04:38:18.373Z,994.41
2022-10-13T04:39:18.293Z,994.43
2022-10-13T04:40:18.211Z,994.42
2022-10-13T04:41:18.131Z,994.39
2022-10-13T04:42:18.447Z,994.42
2022-10-13T04:43:17.973Z,994.42
2022-10-13T04:44:17.890Z,994.43
2022-10-13T04:45:17.811Z,994.46
2022-10-13T04:46:17.731Z,994.40
2022-10-13T04:47:17.648Z,994.40
2022-10-13T04:48:17.566Z,994.40
2022-10-13T04:49:17.489Z,994.37
2022-10-13T04:50:17.404Z,994.37
2022-10-13T04:51:17.359Z,994.33
2022-10-13T04:52:17.555Z,994.35
2022-10-13T04:53:19.361Z,994.30
2022-10-13T04:54:17.084Z,994.30
2022-10-13T04:55:17.004Z,994.29
2022-10-13T04:56:16.924Z,994.31
2022-10-13T04:57:16.843Z,994.28
2022-10-13T04:58:16.760Z,994.29
2022-10-13T04:59:16.681Z,994.27
2022-10-13T05:00:16.599Z,994.29
2022-10-13T05:01:21.459Z,994.24
2022-10-13T05:02:16.687Z,994.25
2022-10-13T05:03:16.358Z,994.27
2022-10-13T05:04:16.277Z,994.31
2022-10-13T05:05:16.195Z,994.30
2022-10-13T05:06:16.114Z,994.29
2022-10-13T05:07:18.456Z,994.31
2022-10-13T05:08:15.955Z,994.29
2022-10-13T05:09:16.124Z,994.29
2022-10-13T05:10:15.793Z,994.30
2022-10-13T05:11:15.713Z,994.26
2022-10-13T05:12:15.631Z,994.29
2022-10-13T05:13:15.552Z,994.28
2022-10-13T05:14:15.570Z,994.25
2022-10-13T05:15:15.390Z,994.22
2022-10-13T05:16:15.312Z,994.23
2022-10-13T05:17:15.230Z,994.24
2022-10-13T05:18:15.148Z,994.22
2022-10-13T05:19:15.068Z,994.20
2022-10-13T05:20:14.989Z,994.21
2022-10-13T05:21:14.903Z,994.19
2022-10-13T05:22:14.828Z,994.20
2022-10-13T05:23:14.766Z,994.20
2022-10-13T05:24:14.666Z,994.18
2022-10-13T05:25:14.585Z,994.19
2022-10-13T05:26:14.505Z,994.18
2022-10-13T05:27:14.432Z,994.20
2022-10-13T05:28:14.391Z,994.18
2022-10-13T05:29:14.261Z,994.16
2022-10-13T05:30:14.189Z,994.13
2022-10-13T05:31:14.253Z,994.12
2022-10-13T05:32:14.025Z,994.07
2022-10-13T05:33:13.940Z,994.07
2022-10-13T05:34:13.860Z,994.05
2022-10-13T05:35:13.780Z,994.03
2022-10-13T05:36:13.699Z,993.97
2022-10-13T05:37:13.618Z,993.95
2022-10-13T05:38:13.537Z,993.96
2022-10-13T05:39:13.477Z,993.98
2022-10-13T05:40:13.376Z,993.96
2022-10-13T05:41:13.296Z,994.03
2022-10-13T05:42:13.226Z,993.95
2022-10-13T05:43:13.133Z,994.00
2022-10-13T05:44:13.059Z,994.00
2022-10-13T05:45:12.976Z,993.97
2022-10-13T05:46:12.892Z,993.96
2022-10-13T05:47:12.864Z,994.00
2022-10-13T05:48:12.731Z,994.01
2022-10-13T05:49:12.649Z,993.98
2022-10-13T05:50:12.576Z,993.99
2022-10-13T05:51:12.488Z,993.93
2022-10-13T05:52:12.411Z,993.94
2022-10-13T05:53:12.327Z,993.94
2022-10-13T05:54:12.247Z,993.95
2022-10-13T05:55:12.183Z,993.95
2022-10-13T05:56:12.087Z,993.92
2022-10-13T05:57:12.006Z,993.93
2022-10-13T05:58:11.925Z,993.87
2022-10-13T05:59:11.843Z,993.89
2022-10-13T06:00:11.770Z,993.88
2022-10-13T06:01:11.686Z,993.90
2022-10-13T06:02:11.680Z,993.88
2022-10-13T06:03:11.519Z,993.88
2022-10-13T06:04:11.441Z,993.89
2022-10-13T06:05:11.361Z,993.87
2022-10-13T06:06:11.281Z,993.88
2022-10-13T06:07:11.198Z,993.84
2022-10-13T06:08:11.119Z,993.80
2022-10-13T06:09:11.035Z,993.78
2022-10-13T06:10:10.957Z,993.81
2022-10-13T06:11:10.996Z,993.81
2022-10-13T06:12:10.796Z,993.77
2022-10-13T06:13:10.716Z,993.79
2022-10-13T06:14:10.637Z,993.77
2022-10-13T06:15:10.554Z,993.79
2022-10-13T06:16:10.575Z,993.78
2022-10-13T06:17:10.393Z,993.74
2022-10-13T06:18:10.313Z,993.76
2022-10-13T06:19:10.232Z,993.75
2022-10-13T06:20:10.154Z,993.71
2022-10-13T06:21:10.071Z,993.68
2022-10-13T06:22:09.992Z,993.65
2022-10-13T06:23:09.918Z,993.61
2022-10-13T06:24:09.832Z,993.67
2022-10-13T06:25:09.747Z,993.65
2022-10-13T06:26:09.673Z,993.64
2022-10-13T06:27:09.608Z,993.65
2022-10-13T06:28:09.510Z,993.66
2022-10-13T06:29:09.484Z,993.66
2022-10-13T06:30:09.351Z,993.64
2022-10-13T06:31:09.266Z,993.62
2022-10-13T06:32:09.188Z,993.60
2022-10-13T06:33:09.123Z,993.55
2022-10-13T06:34:09.027Z,993.57
2022-10-13T06:35:08.946Z,993.54
2022-10-13T06:36:08.868Z,993.53
2022-10-13T06:37:08.786Z,993.55
2022-10-13T06:38:08.705Z,993.57
2022-10-13T06:39:08.628Z,993.57
2022-10-13T06:40:08.546Z,993.60
2022-10-13T06:41:08.465Z,993.66
2022-10-13T06:42:08.384Z,993.66
2022-10-13T06:43:08.397Z,993.69
2022-10-13T06:44:08.226Z,993.70
2022-10-13T06:45:08.142Z,993.68
2022-10-13T06:46:08.065Z,993.72
2022-10-13T06:47:07.984Z,993.77
2022-10-13T06:48:07.903Z,993.77
2022-10-13T06:49:07.823Z,993.80
2022-10-13T06:50:07.747Z,993.76
2022-10-13T06:51:07.699Z,993.75
2022-10-13T06:52:07.586Z,993.77
2022-10-13T06:53:07.502Z,993.71
2022-10-13T06:54:07.426Z,993.73
2022-10-13T06:55:07.344Z,993.73
2022-10-13T06:56:07.268Z,993.77
2022-10-13T06:57:07.183Z,993.74
2022-10-13T06:58:07.107Z,993.74
2022-10-13T06:59:07.044Z,993.74
2022-10-13T07:00:06.946Z,993.73
2022-10-13T07:01:06.989Z,993.68
2022-10-13T07:02:06.786Z,993.66
2022-10-13T07:03:06.707Z,993.66
2022-10-13T07:04:06.627Z,993.63
2022-10-13T07:05:06.547Z,993.67
2022-10-13T07:06:06.466Z,993.66
2022-10-13T07:07:06.386Z,993.68
2022-10-13T07:08:06.309Z,993.66
2022-10-13T07:09:06.228Z,993.68
2022-10-13T07:10:06.150Z,993.73
2022-10-13T07:11:06.070Z,993.76
2022-10-13T07:12:06.141Z,993.77
2022-10-13T07:13:05.910Z,993.80
2022-10-13T07:14:05.835Z,993.80
2022-10-13T07:15:05.770Z,993.77
2022-10-13T07:16:05.677Z,993.75
2022-10-13T07:17:05.693Z,993.77
2022-10-13T07:18:05.522Z,993.74
2022-10-13T07:19:05.435Z,993.75
2022-10-13T07:20:07.351Z,993.71
2022-10-13T07:21:05.279Z,993.75
2022-10-13T07:22:05.202Z,993.74
2022-10-13T07:23:05.119Z,993.78
2022-10-13T07:24:05.041Z,993.78
2022-10-13T07:25:05.018Z,993.81
2022-10-13T07:26:04.883Z,993.84
2022-10-13T07:27:07.831Z,993.78
2022-10-13T07:28:04.727Z,993.80
2022-10-13T07:29:04.647Z,993.75
2022-10-13T07:30:04.566Z,993.68
2022-10-13T07:31:04.523Z,993.65
2022-10-13T07:32:04.415Z,993.60
2022-10-13T07:33:04.330Z,993.55
2022-10-13T07:34:04.253Z,993.54
2022-10-13T07:35:04.172Z,993.53
2022-10-13T07:36:04.095Z,993.56
2022-10-13T07:37:04.015Z,993.64
2022-10-13T07:38:03.937Z,993.57
2022-10-13T07:39:03.859Z,993.50
2022-10-13T07:40:03.780Z,993.42
2022-10-13T07:41:03.700Z,993.41
2022-10-13T07:42:03.622Z,993.49
2022-10-13T07:43:03.543Z,993.59
2022-10-13T07:44:03.464Z,993.62
2022-10-13T07:45:03.384Z,993.59
2022-10-13T07:46:03.310Z,993.61
2022-10-13T07:47:03.246Z,993.59
2022-10-13T07:48:03.151Z,993.63
2022-10-13T07:49:03.073Z,993.74
2022-10-13T07:50:02.995Z,993.76
2022-10-13T07:51:02.951Z,993.81
2022-10-13T07:52:02.840Z,993.82
2022-10-13T07:53:02.761Z,993.82
2022-10-13T07:54:02.682Z,993.78
2022-10-13T07:55:02.603Z,993.74
2022-10-13T07:56:02.526Z,993.81
2022-10-13T07:57:44.927Z,993.79
2022-10-13T07:58:44.851Z,993.79
2022-10-13T07:59:44.773Z,993.80
2022-10-13T08:00:44.696Z,993.76
2022-10-13T08:01:44.676Z,993.74
2022-10-13T08:02:44.560Z,993.74
2022-10-13T08:03:47.358Z,993.73
2022-10-13T08:40:30.235Z,993.74
2022-10-13T08:41:29.939Z,993.73
2022-10-13T08:42:29.857Z,993.73
2022-10-13T12:29:37.008Z,992.18
2022-10-13T12:30:31.192Z,992.16
2022-10-13T12:31:31.118Z,992.15
2022-10-13T12:32:31.093Z,992.15
2022-10-13T12:33:30.969Z,992.19
2022-10-13T12:34:30.896Z,992.14
2022-10-13T12:35:30.825Z,992.13
2022-10-13T12:36:30.750Z,992.10
2022-10-13T12:37:30.914Z,992.09
2022-10-13T12:38:30.599Z,992.11
2022-10-13T12:39:30.527Z,992.09
2022-10-13T12:40:30.451Z,992.12
2022-10-13T12:41:30.410Z,992.03
2022-10-13T12:42:30.304Z,992.05
2022-10-13T12:43:30.469Z,992.06
2022-10-13T12:44:30.191Z,992.09
2022-10-13T12:45:30.422Z,992.07
2022-10-13T12:46:30.248Z,992.07
2022-10-13T12:48:29.892Z,992.06
2022-10-13T12:49:29.785Z,992.08
2022-10-13T12:50:30.065Z,992.11
2022-10-13T12:51:29.881Z,992.12
2022-10-13T12:52:29.594Z,992.14
2022-10-13T12:53:29.523Z,992.16
2022-10-13T12:54:29.448Z,992.13
2022-10-13T12:55:29.337Z,992.12
2022-10-13T12:56:29.261Z,992.13
2022-10-13T12:57:29.188Z,992.11
2022-10-13T12:58:29.111Z,992.13
2022-10-13T12:59:29.038Z,992.13
2022-10-13T13:00:29.070Z,992.15
2022-10-13T13:01:28.925Z,992.19
2022-10-13T13:02:28.827Z,992.17
2022-10-13T13:03:28.739Z,992.18
2022-10-13T13:04:28.662Z,992.21
2022-10-13T13:05:28.585Z,992.17
2022-10-13T13:06:28.549Z,992.19
2022-10-13T13:07:28.437Z,992.20
2022-10-13T13:08:28.455Z,992.21
2022-10-13T13:10:28.244Z,992.14
2022-10-13T13:11:28.135Z,992.18
2022-10-13T13:13:28.221Z,992.15
2022-10-13T13:14:28.546Z,992.14
2022-10-13T13:16:27.791Z,992.14
2022-10-13T13:17:45.775Z,992.09
2022-10-13T13:20:27.693Z,992.10
2022-10-13T13:21:27.411Z,992.12
2022-10-13T13:22:27.858Z,992.07
2022-10-13T13:24:36.062Z,992.13
2022-10-13T13:25:27.114Z,992.07
2022-10-13T13:29:27.416Z,991.98
2022-10-13T13:30:27.334Z,991.93
2022-10-13T13:31:27.370Z,991.92
2022-10-13T13:36:27.899Z,991.80
2022-10-13T13:40:26.223Z,991.84
2022-10-13T13:41:25.902Z,991.80
2022-10-13T13:42:25.826Z,991.85
2022-10-13T13:43:25.753Z,991.86
2022-10-13T13:44:25.671Z,991.82
2022-10-13T13:45:25.562Z,991.87
2022-10-13T13:46:25.520Z,991.88
2022-10-13T13:47:25.418Z,991.85
2022-10-13T13:48:25.335Z,991.87
2022-10-13T13:49:25.299Z,991.91
2022-10-13T13:50:25.221Z,991.89
2022-10-13T13:51:25.113Z,991.89
2022-10-13T13:52:25.069Z,991.85
2022-10-13T13:53:24.996Z,991.85
2022-10-13T13:54:24.884Z,991.82
2022-10-13T13:55:24.809Z,991.81
2022-10-13T13:56:24.732Z,991.82
2022-10-13T13:57:24.693Z,991.75
2022-10-13T13:58:24.619Z,991.76
2022-10-13T13:59:24.509Z,991.77
2022-10-13T14:00:24.430Z,991.79
2022-10-13T14:01:24.400Z,991.78
2022-10-13T14:02:24.315Z,991.78
2022-10-13T14:03:24.445Z,991.82
2022-10-13T14:04:24.365Z,991.84
2022-10-13T14:05:24.254Z,991.86
2022-10-13T14:06:23.977Z,991.86
2022-10-13T14:07:24.063Z,991.88
2022-10-13T14:09:23.767Z,991.89
2022-10-13T14:10:23.710Z,991.87
2022-10-13T14:11:23.631Z,991.85
2022-10-13T14:12:23.865Z,991.74
2022-10-13T14:13:23.683Z,991.62
2022-10-13T14:14:23.609Z,991.53
2022-10-13T14:15:27.245Z,991.55
2022-10-13T14:16:23.257Z,991.62
2022-10-13T14:17:23.143Z,991.64
2022-10-13T14:18:23.103Z,991.64
2022-10-13T14:19:23.030Z,991.61
2022-10-13T14:20:22.953Z,991.59
2022-10-13T14:21:22.884Z,991.55
2022-10-13T14:22:23.272Z,991.58
2022-10-13T14:23:22.724Z,991.58
2022-10-13T14:24:22.652Z,991.56
2022-10-13T14:25:22.783Z,991.58
2022-10-13T14:26:22.504Z,991.60
2022-10-13T14:27:22.389Z,991.57
2022-10-13T14:28:22.406Z,991.63
2022-10-13T14:29:22.239Z,991.67
2022-10-13T14:30:22.405Z,991.68
2022-10-13T14:31:22.324Z,991.70
2022-10-13T14:32:22.674Z,991.71
2022-10-13T14:33:22.138Z,991.71
2022-10-13T14:34:21.897Z,991.68
2022-10-13T14:35:21.820Z,991.67
2022-10-13T14:37:23.323Z,991.62
2022-10-13T14:38:21.589Z,991.63
2022-10-13T14:39:21.518Z,991.62
2022-10-13T14:41:21.366Z,991.65
2022-10-13T14:42:21.491Z,991.62
2022-10-13T14:43:21.208Z,991.68
2022-10-13T14:44:21.134Z,991.64
2022-10-13T14:45:21.061Z,991.68
2022-10-13T14:46:20.984Z,991.66
2022-10-13T14:47:21.266Z,991.69
2022-10-13T14:48:24.683Z,991.64
2022-10-13T14:49:20.721Z,991.67
2022-10-13T14:50:20.696Z,991.65
2022-10-13T14:51:20.600Z,991.59
2022-10-13T14:52:20.537Z,991.60
2022-10-13T14:53:20.657Z,991.55
2022-10-13T14:55:20.266Z,991.57
2022-10-13T14:56:20.222Z,991.60
2022-10-13T14:57:20.406Z,991.59
2022-10-13T14:58:20.041Z,991.58
2022-10-13T14:59:20.004Z,991.56
2022-10-13T15:00:19.924Z,991.55
2022-10-13T15:01:19.815Z,991.52
2022-10-13T15:02:19.806Z,991.59
2022-10-13T15:03:19.727Z,991.66
2022-10-13T15:04:19.583Z,991.71
2022-10-13T15:05:19.710Z,991.71
2022-10-13T15:06:19.467Z,991.74
2022-10-13T15:07:19.706Z,991.77
2022-10-13T15:08:19.283Z,991.74
2022-10-13T15:09:21.055Z,991.72
2022-10-13T15:10:19.876Z,991.70
2022-10-13T15:11:19.290Z,991.71
2022-10-13T15:12:19.367Z,991.72
2022-10-13T15:14:18.844Z,991.74
2022-10-13T15:15:18.787Z,991.70
2022-10-13T15:16:18.713Z,991.69
2022-10-13T15:17:18.836Z,991.68
2022-10-13T15:18:18.523Z,991.69
2022-10-13T15:19:18.481Z,991.66
2022-10-13T15:20:18.403Z,991.64
2022-10-13T15:21:18.327Z,991.60
2022-10-13T15:22:18.648Z,991.64
2022-10-13T15:23:18.177Z,991.61
2022-10-13T15:24:18.269Z,991.62
2022-10-13T15:25:18.225Z,991.58
2022-10-13T15:26:17.916Z,991.59
2022-10-13T15:27:18.073Z,991.65
2022-10-13T15:28:17.785Z,991.61
2022-10-13T15:29:17.718Z,991.62
2022-10-13T15:30:17.628Z,991.65
2022-10-13T15:31:17.531Z,991.61
2022-10-13T15:32:17.494Z,991.61
2022-10-13T15:33:17.616Z,991.56
2022-10-13T15:34:17.648Z,991.64
2022-10-13T15:35:17.262Z,991.57
2022-10-13T15:39:16.962Z,991.58
2022-10-13T15:40:16.848Z,991.62
2022-10-13T15:42:16.737Z,991.66
2022-10-13T15:43:16.617Z,991.65
2022-10-13T15:44:16.579Z,991.63
2022-10-13T15:45:16.718Z,991.59
2022-10-13T15:46:16.654Z,991.62
2022-10-13T15:47:17.308Z,991.58
2022-10-13T15:49:16.196Z,991.57
2022-10-13T15:50:16.533Z,991.57
2022-10-13T15:51:16.047Z,991.56
2022-10-13T15:52:16.028Z,991.54
2022-10-13T15:53:15.891Z,991.60
2022-10-13T15:54:16.018Z,991.59
2022-10-13T15:55:15.910Z,991.59
2022-10-13T15:56:15.866Z,991.57
2022-10-13T15:57:15.793Z,991.58
2022-10-13T15:58:16.422Z,991.58
2022-10-13T15:59:16.207Z,991.58
2022-10-13T16:00:15.320Z,991.55
2022-10-13T16:01:15.325Z,991.57
2022-10-13T16:02:15.193Z,991.53
2022-10-13T16:03:15.090Z,991.58
2022-10-13T16:04:15.017Z,991.56
2022-10-13T16:05:14.941Z,991.53
2022-10-13T16:06:14.910Z,991.54
2022-10-13T16:07:14.787Z,991.51
2022-10-13T16:08:14.732Z,991.55
2022-10-13T16:09:14.632Z,991.51
2022-10-13T16:10:14.558Z,991.45
2022-10-13T16:11:14.484Z,991.45
2022-10-13T16:12:14.402Z,991.47
2022-10-13T16:13:14.331Z,991.46
2022-10-13T16:14:14.250Z,991.41
2022-10-13T16:15:14.174Z,991.40
2022-10-13T16:16:14.098Z,991.39
2022-10-13T16:17:14.024Z,991.39
2022-10-13T16:18:14.162Z,991.41
2022-10-13T16:19:14.106Z,991.42
2022-10-13T16:20:13.799Z,991.45
2022-10-13T16:21:18.257Z,991.47
2022-10-13T16:22:13.639Z,991.49
2022-10-13T16:23:13.561Z,991.49
2022-10-13T16:24:13.486Z,991.44
2022-10-13T16:25:13.409Z,991.50
2022-10-13T16:26:13.331Z,991.53
2022-10-13T16:27:13.257Z,991.54
2022-10-13T16:28:13.254Z,991.59
2022-10-13T16:29:13.105Z,991.56
2022-10-13T16:30:13.025Z,991.61
2022-10-13T16:31:12.948Z,991.59
2022-10-13T16:32:12.872Z,991.59
2022-10-13T16:33:12.798Z,991.57
2022-10-13T16:34:12.788Z,991.56
2022-10-13T16:35:12.652Z,991.58
2022-10-13T16:36:12.584Z,991.53
2022-10-13T16:37:12.497Z,991.58
2022-10-13T16:38:12.415Z,991.57
2022-10-13T16:39:12.337Z,991.58
2022-10-13T16:40:12.260Z,991.56
2022-10-13T16:41:12.182Z,991.60
2022-10-13T16:42:12.105Z,991.54
2022-10-13T16:43:12.031Z,991.56
2022-10-13T16:44:11.951Z,991.56
2022-10-13T16:45:11.878Z,991.57
2022-10-13T16:46:11.800Z,991.54
2022-10-13T16:47:15.935Z,991.54
2022-10-13T16:48:11.643Z,991.58
2022-10-13T16:49:11.570Z,991.62
2022-10-13T16:50:11.508Z,991.61
2022-10-13T16:51:11.416Z,991.64
2022-10-13T16:52:11.337Z,991.65
2022-10-13T16:53:11.258Z,991.64
2022-10-13T16:54:11.181Z,991.67
2022-10-13T16:55:11.104Z,991.68
2022-10-13T16:56:11.028Z,991.70
2022-10-13T16:57:10.951Z,991.71
2022-10-13T16:58:11.074Z,991.75
2022-10-13T16:59:10.799Z,991.76
2022-10-13T17:00:10.727Z,991.81
2022-10-13T17:01:10.707Z,991.79
2022-10-13T17:02:10.565Z,991.81
2022-10-13T17:03:10.491Z,991.71
2022-10-13T17:04:10.413Z,991.68
2022-10-13T17:05:10.336Z,991.61
2022-10-13T17:06:10.279Z,991.52
2022-10-13T17:07:10.183Z,991.48
2022-10-13T17:08:10.104Z,991.44
2022-10-13T17:09:10.027Z,991.39
2022-10-13T17:10:09.953Z,991.38
2022-10-13T17:11:09.872Z,991.41
2022-10-13T17:12:09.801Z,991.47
2022-10-13T17:13:09.719Z,991.52
2022-10-13T17:14:09.641Z,991.56
2022-10-13T17:15:09.564Z,991.58
2022-10-13T17:16:09.486Z,991.66
2022-10-13T17:17:09.413Z,991.65